sensor_id;sensor_type;location;lat;lon;timestamp;P1;durP1;ratioP1;P2;durP2;ratioP2
53521;SDS011;39398;48.382;9.802;2023-08-01T00:01:28;8.77;;;3.83;;
53521;SDS011;39398;48.382;9.802;2023-08-01T00:06:30;7.00;;;3.85;;
53521;SDS011;39398;48.382;9.802;2023-08-01T00:11:32;8.07;;;3.90;;
53521;SDS011;39398;48.382;9.802;2023-08-01T00:16:34;5.88;;;3.88;;
53521;SDS011;39398;48.382;9.802;2023-08-01T00:21:35;8.07;;;4.13;;
53521;SDS011;39398;48.382;9.802;2023-08-01T00:26:38;8.23;;;3.60;;
53521;SDS011;39398;48.382;9.802;2023-08-01T00:31:40;7.85;;;4.00;;
53521;SDS011;39398;48.382;9.802;2023-08-01T00:36:41;6.05;;;3.70;;
53521;SDS011;39398;48.382;9.802;2023-08-01T00:41:44;5.65;;;3.95;;
53521;SDS011;39398;48.382;9.802;2023-08-01T00:46:46;7.07;;;3.40;;
53521;SDS011;39398;48.382;9.802;2023-08-01T00:51:47;6.68;;;3.70;;
53521;SDS011;39398;48.382;9.802;2023-08-01T00:56:50;7.15;;;3.63;;
53521;SDS011;39398;48.382;9.802;2023-08-01T01:01:52;5.00;;;3.38;;
53521;SDS011;39398;48.382;9.802;2023-08-01T01:06:56;8.05;;;3.70;;
53521;SDS011;39398;48.382;9.802;2023-08-01T01:12:00;7.00;;;3.42;;
53521;SDS011;39398;48.382;9.802;2023-08-01T01:17:01;6.13;;;3.17;;
53521;SDS011;39398;48.382;9.802;2023-08-01T01:22:04;7.53;;;3.08;;
53521;SDS011;39398;48.382;9.802;2023-08-01T01:27:07;5.57;;;3.63;;
53521;SDS011;39398;48.382;9.802;2023-08-01T01:32:09;6.50;;;3.50;;
53521;SDS011;39398;48.382;9.802;2023-08-01T01:37:12;5.05;;;3.45;;
53521;SDS011;39398;48.382;9.802;2023-08-01T01:42:14;5.72;;;3.47;;
53521;SDS011;39398;48.382;9.802;2023-08-01T01:47:15;5.30;;;3.30;;
53521;SDS011;39398;48.382;9.802;2023-08-01T01:52:18;6.65;;;3.60;;
53521;SDS011;39398;48.382;9.802;2023-08-01T01:57:19;6.90;;;3.55;;
53521;SDS011;39398;48.382;9.802;2023-08-01T02:02:21;4.50;;;3.50;;
53521;SDS011;39398;48.382;9.802;2023-08-01T02:07:23;5.63;;;3.60;;
53521;SDS011;39398;48.382;9.802;2023-08-01T02:12:25;6.15;;;3.78;;
53521;SDS011;39398;48.382;9.802;2023-08-01T02:17:26;6.38;;;3.90;;
53521;SDS011;39398;48.382;9.802;2023-08-01T02:22:29;5.53;;;3.67;;
53521;SDS011;39398;48.382;9.802;2023-08-01T02:27:30;4.95;;;3.47;;
53521;SDS011;39398;48.382;9.802;2023-08-01T02:32:32;7.72;;;3.83;;
53521;SDS011;39398;48.382;9.802;2023-08-01T02:37:34;4.35;;;3.55;;
53521;SDS011;39398;48.382;9.802;2023-08-01T02:42:36;6.30;;;3.83;;
53521;SDS011;39398;48.382;9.802;2023-08-01T02:47:37;6.95;;;4.07;;
53521;SDS011;39398;48.382;9.802;2023-08-01T02:52:40;5.55;;;3.40;;
53521;SDS011;39398;48.382;9.802;2023-08-01T02:57:41;8.40;;;4.15;;
53521;SDS011;39398;48.382;9.802;2023-08-01T03:02:43;6.53;;;4.05;;
53521;SDS011;39398;48.382;9.802;2023-08-01T03:07:46;7.05;;;4.15;;
53521;SDS011;39398;48.382;9.802;2023-08-01T03:12:47;7.25;;;3.90;;
53521;SDS011;39398;48.382;9.802;2023-08-01T03:17:48;8.23;;;4.30;;
53521;SDS011;39398;48.382;9.802;2023-08-01T03:22:51;7.07;;;4.20;;
53521;SDS011;39398;48.382;9.802;2023-08-01T03:27:53;8.10;;;4.60;;
53521;SDS011;39398;48.382;9.802;2023-08-01T03:32:54;8.57;;;5.03;;
53521;SDS011;39398;48.382;9.802;2023-08-01T03:37:57;8.13;;;4.85;;
53521;SDS011;39398;48.382;9.802;2023-08-01T03:42:58;5.63;;;3.85;;
53521;SDS011;39398;48.382;9.802;2023-08-01T03:48:00;6.75;;;4.05;;
53521;SDS011;39398;48.382;9.802;2023-08-01T03:53:03;7.78;;;4.65;;
53521;SDS011;39398;48.382;9.802;2023-08-01T03:58:04;7.30;;;4.95;;
53521;SDS011;39398;48.382;9.802;2023-08-01T04:03:05;8.45;;;5.30;;
53521;SDS011;39398;48.382;9.802;2023-08-01T04:08:08;10.50;;;5.65;;
53521;SDS011;39398;48.382;9.802;2023-08-01T04:13:09;8.85;;;4.70;;
53521;SDS011;39398;48.382;9.802;2023-08-01T04:18:11;8.85;;;4.50;;
53521;SDS011;39398;48.382;9.802;2023-08-01T04:23:13;8.38;;;5.20;;
53521;SDS011;39398;48.382;9.802;2023-08-01T04:28:15;5.93;;;4.55;;
53521;SDS011;39398;48.382;9.802;2023-08-01T04:33:17;8.40;;;4.63;;
53521;SDS011;39398;48.382;9.802;2023-08-01T04:38:19;6.75;;;4.05;;
53521;SDS011;39398;48.382;9.802;2023-08-01T04:43:21;7.45;;;4.40;;
53521;SDS011;39398;48.382;9.802;2023-08-01T04:48:22;8.02;;;4.72;;
53521;SDS011;39398;48.382;9.802;2023-08-01T04:53:25;7.88;;;5.32;;
53521;SDS011;39398;48.382;9.802;2023-08-01T04:58:26;7.10;;;5.40;;
53521;SDS011;39398;48.382;9.802;2023-08-01T05:03:28;9.00;;;4.95;;
53521;SDS011;39398;48.382;9.802;2023-08-01T05:08:31;9.85;;;4.93;;
53521;SDS011;39398;48.382;9.802;2023-08-01T05:13:32;8.32;;;5.03;;
53521;SDS011;39398;48.382;9.802;2023-08-01T05:18:33;9.55;;;5.38;;
53521;SDS011;39398;48.382;9.802;2023-08-01T05:23:36;9.13;;;4.88;;
53521;SDS011;39398;48.382;9.802;2023-08-01T05:28:37;6.85;;;4.63;;
53521;SDS011;39398;48.382;9.802;2023-08-01T05:33:39;9.25;;;5.55;;
53521;SDS011;39398;48.382;9.802;2023-08-01T05:38:42;8.35;;;5.30;;
53521;SDS011;39398;48.382;9.802;2023-08-01T05:43:43;10.32;;;4.60;;
53521;SDS011;39398;48.382;9.802;2023-08-01T05:48:44;8.15;;;5.65;;
53521;SDS011;39398;48.382;9.802;2023-08-01T05:53:47;10.65;;;5.05;;
53521;SDS011;39398;48.382;9.802;2023-08-01T05:58:48;9.25;;;5.40;;
53521;SDS011;39398;48.382;9.802;2023-08-01T06:03:50;8.68;;;5.72;;
53521;SDS011;39398;48.382;9.802;2023-08-01T06:08:52;10.68;;;5.43;;
53521;SDS011;39398;48.382;9.802;2023-08-01T06:13:54;9.38;;;5.30;;
53521;SDS011;39398;48.382;9.802;2023-08-01T06:18:55;7.10;;;4.60;;
53521;SDS011;39398;48.382;9.802;2023-08-01T06:23:58;8.88;;;4.88;;
53521;SDS011;39398;48.382;9.802;2023-08-01T06:28:59;9.55;;;5.43;;
53521;SDS011;39398;48.382;9.802;2023-08-01T06:34:01;8.63;;;4.50;;
53521;SDS011;39398;48.382;9.802;2023-08-01T06:39:04;9.50;;;4.45;;
53521;SDS011;39398;48.382;9.802;2023-08-01T06:44:05;7.75;;;4.32;;
53521;SDS011;39398;48.382;9.802;2023-08-01T06:49:06;6.25;;;4.25;;
53521;SDS011;39398;48.382;9.802;2023-08-01T06:54:09;7.85;;;4.10;;
53521;SDS011;39398;48.382;9.802;2023-08-01T06:59:10;9.70;;;4.20;;
53521;SDS011;39398;48.382;9.802;2023-08-01T07:04:12;10.60;;;4.35;;
53521;SDS011;39398;48.382;9.802;2023-08-01T07:09:15;7.43;;;4.25;;
53521;SDS011;39398;48.382;9.802;2023-08-01T07:14:16;8.38;;;4.22;;
53521;SDS011;39398;48.382;9.802;2023-08-01T07:19:18;7.13;;;4.30;;
53521;SDS011;39398;48.382;9.802;2023-08-01T07:24:21;7.43;;;4.07;;
53521;SDS011;39398;48.382;9.802;2023-08-01T07:29:22;7.97;;;4.50;;
53521;SDS011;39398;48.382;9.802;2023-08-01T07:34:23;7.60;;;4.20;;
53521;SDS011;39398;48.382;9.802;2023-08-01T07:39:26;9.98;;;4.68;;
53521;SDS011;39398;48.382;9.802;2023-08-01T07:44:28;7.60;;;4.50;;
53521;SDS011;39398;48.382;9.802;2023-08-01T07:49:29;7.15;;;4.28;;
53521;SDS011;39398;48.382;9.802;2023-08-01T07:54:32;5.70;;;3.60;;
53521;SDS011;39398;48.382;9.802;2023-08-01T07:59:33;5.30;;;3.83;;
53521;SDS011;39398;48.382;9.802;2023-08-01T08:04:35;7.45;;;3.95;;
53521;SDS011;39398;48.382;9.802;2023-08-01T08:09:37;6.22;;;3.67;;
53521;SDS011;39398;48.382;9.802;2023-08-01T08:14:39;8.80;;;4.60;;
53521;SDS011;39398;48.382;9.802;2023-08-01T08:19:40;8.75;;;4.22;;
53521;SDS011;39398;48.382;9.802;2023-08-01T08:24:43;7.78;;;4.00;;
53521;SDS011;39398;48.382;9.802;2023-08-01T08:29:44;7.75;;;4.45;;
53521;SDS011;39398;48.382;9.802;2023-08-01T08:34:46;6.82;;;4.22;;
53521;SDS011;39398;48.382;9.802;2023-08-01T08:39:48;7.63;;;4.15;;
53521;SDS011;39398;48.382;9.802;2023-08-01T08:44:50;6.25;;;4.00;;
53521;SDS011;39398;48.382;9.802;2023-08-01T08:49:55;5.07;;;3.13;;
53521;SDS011;39398;48.382;9.802;2023-08-01T08:54:58;6.13;;;3.72;;
53521;SDS011;39398;48.382;9.802;2023-08-01T09:00:00;6.78;;;3.80;;
53521;SDS011;39398;48.382;9.802;2023-08-01T09:05:04;8.65;;;4.20;;
53521;SDS011;39398;48.382;9.802;2023-08-01T09:10:07;7.35;;;3.88;;
53521;SDS011;39398;48.382;9.802;2023-08-01T09:15:09;6.07;;;3.42;;
53521;SDS011;39398;48.382;9.802;2023-08-01T09:20:11;6.75;;;4.05;;
53521;SDS011;39398;48.382;9.802;2023-08-01T09:25:14;4.57;;;3.65;;
53521;SDS011;39398;48.382;9.802;2023-08-01T09:30:15;5.88;;;3.60;;
53521;SDS011;39398;48.382;9.802;2023-08-01T09:35:17;8.27;;;4.57;;
53521;SDS011;39398;48.382;9.802;2023-08-01T09:40:21;8.00;;;4.10;;
53521;SDS011;39398;48.382;9.802;2023-08-01T09:45:22;6.57;;;3.90;;
53521;SDS011;39398;48.382;9.802;2023-08-01T09:50:24;7.93;;;4.63;;
53521;SDS011;39398;48.382;9.802;2023-08-01T09:55:30;10.43;;;5.97;;
53521;SDS011;39398;48.382;9.802;2023-08-01T10:00:32;9.52;;;5.72;;
53521;SDS011;39398;48.382;9.802;2023-08-01T10:05:34;9.52;;;5.18;;
53521;SDS011;39398;48.382;9.802;2023-08-01T10:10:38;8.20;;;4.40;;
53521;SDS011;39398;48.382;9.802;2023-08-01T10:15:40;6.90;;;4.38;;
53521;SDS011;39398;48.382;9.802;2023-08-01T10:20:41;6.63;;;5.10;;
53521;SDS011;39398;48.382;9.802;2023-08-01T10:25:44;7.40;;;4.85;;
53521;SDS011;39398;48.382;9.802;2023-08-01T10:30:46;9.48;;;4.88;;
53521;SDS011;39398;48.382;9.802;2023-08-01T10:35:48;7.13;;;4.68;;
53521;SDS011;39398;48.382;9.802;2023-08-01T10:40:51;9.18;;;5.20;;
53521;SDS011;39398;48.382;9.802;2023-08-01T10:46:00;6.63;;;3.70;;
53521;SDS011;39398;48.382;9.802;2023-08-01T10:51:01;5.93;;;3.90;;
53521;SDS011;39398;48.382;9.802;2023-08-01T10:56:04;5.70;;;3.08;;
53521;SDS011;39398;48.382;9.802;2023-08-01T11:01:05;4.13;;;3.22;;
53521;SDS011;39398;48.382;9.802;2023-08-01T11:06:07;4.22;;;3.03;;
53521;SDS011;39398;48.382;9.802;2023-08-01T11:11:10;5.32;;;3.13;;
53521;SDS011;39398;48.382;9.802;2023-08-01T11:16:15;3.57;;;3.20;;
53521;SDS011;39398;48.382;9.802;2023-08-01T11:21:24;4.85;;;2.65;;
53521;SDS011;39398;48.382;9.802;2023-08-01T11:26:27;10.60;;;6.95;;
53521;SDS011;39398;48.382;9.802;2023-08-01T11:31:29;8.13;;;4.07;;
53521;SDS011;39398;48.382;9.802;2023-08-01T11:36:30;4.53;;;2.60;;
53521;SDS011;39398;48.382;9.802;2023-08-01T11:41:33;4.35;;;2.25;;
53521;SDS011;39398;48.382;9.802;2023-08-01T11:46:35;3.88;;;2.42;;
53521;SDS011;39398;48.382;9.802;2023-08-01T11:51:39;4.20;;;2.35;;
53521;SDS011;39398;48.382;9.802;2023-08-01T11:56:42;2.67;;;2.05;;
53521;SDS011;39398;48.382;9.802;2023-08-01T12:01:45;3.05;;;2.25;;
53521;SDS011;39398;48.382;9.802;2023-08-01T12:06:47;1.98;;;1.60;;
53521;SDS011;39398;48.382;9.802;2023-08-01T12:11:57;2.95;;;1.70;;
53521;SDS011;39398;48.382;9.802;2023-08-01T12:16:59;1.63;;;1.48;;
53521;SDS011;39398;48.382;9.802;2023-08-01T12:22:00;4.82;;;3.80;;
53521;SDS011;39398;48.382;9.802;2023-08-01T12:27:03;1.08;;;0.90;;
53521;SDS011;39398;48.382;9.802;2023-08-01T12:32:05;1.10;;;1.00;;
53521;SDS011;39398;48.382;9.802;2023-08-01T12:37:06;2.25;;;1.17;;
53521;SDS011;39398;48.382;9.802;2023-08-01T12:42:09;1.10;;;0.90;;
53521;SDS011;39398;48.382;9.802;2023-08-01T12:47:10;1.15;;;0.95;;
53521;SDS011;39398;48.382;9.802;2023-08-01T12:52:11;2.45;;;0.60;;
53521;SDS011;39398;48.382;9.802;2023-08-01T12:57:24;1.33;;;0.80;;
53521;SDS011;39398;48.382;9.802;2023-08-01T13:02:26;0.90;;;0.70;;
53521;SDS011;39398;48.382;9.802;2023-08-01T13:07:27;1.20;;;1.10;;
53521;SDS011;39398;48.382;9.802;2023-08-01T13:12:30;2.13;;;1.05;;
53521;SDS011;39398;48.382;9.802;2023-08-01T13:17:32;1.63;;;1.20;;
53521;SDS011;39398;48.382;9.802;2023-08-01T13:22:33;0.80;;;0.73;;
53521;SDS011;39398;48.382;9.802;2023-08-01T13:27:36;0.98;;;0.77;;
53521;SDS011;39398;48.382;9.802;2023-08-01T13:32:38;1.35;;;0.80;;
53521;SDS011;39398;48.382;9.802;2023-08-01T13:37:39;0.70;;;0.70;;
53521;SDS011;39398;48.382;9.802;2023-08-01T13:42:42;1.27;;;1.17;;
53521;SDS011;39398;48.382;9.802;2023-08-01T13:47:43;0.90;;;0.90;;
53521;SDS011;39398;48.382;9.802;2023-08-01T13:52:45;1.00;;;0.90;;
53521;SDS011;39398;48.382;9.802;2023-08-01T13:57:48;1.42;;;0.82;;
53521;SDS011;39398;48.382;9.802;2023-08-01T14:02:49;1.05;;;0.95;;
53521;SDS011;39398;48.382;9.802;2023-08-01T14:07:51;1.58;;;1.00;;
53521;SDS011;39398;48.382;9.802;2023-08-01T14:12:53;1.08;;;0.98;;
53521;SDS011;39398;48.382;9.802;2023-08-01T14:17:55;0.80;;;0.80;;
53521;SDS011;39398;48.382;9.802;2023-08-01T14:22:56;2.25;;;0.95;;
53521;SDS011;39398;48.382;9.802;2023-08-01T14:27:59;1.05;;;0.82;;
53521;SDS011;39398;48.382;9.802;2023-08-01T14:33:01;1.00;;;0.90;;
53521;SDS011;39398;48.382;9.802;2023-08-01T14:38:03;2.65;;;1.00;;
53521;SDS011;39398;48.382;9.802;2023-08-01T14:43:05;1.55;;;1.00;;
53521;SDS011;39398;48.382;9.802;2023-08-01T14:48:07;1.10;;;0.90;;
53521;SDS011;39398;48.382;9.802;2023-08-01T14:53:09;0.68;;;0.65;;
53521;SDS011;39398;48.382;9.802;2023-08-01T14:58:11;0.88;;;0.70;;
53521;SDS011;39398;48.382;9.802;2023-08-01T15:03:13;0.93;;;0.70;;
53521;SDS011;39398;48.382;9.802;2023-08-01T15:08:14;0.60;;;0.60;;
53521;SDS011;39398;48.382;9.802;2023-08-01T15:13:17;1.02;;;0.98;;
53521;SDS011;39398;48.382;9.802;2023-08-01T15:18:18;3.10;;;0.80;;
53521;SDS011;39398;48.382;9.802;2023-08-01T15:23:20;0.80;;;0.80;;
53521;SDS011;39398;48.382;9.802;2023-08-01T15:28:23;2.65;;;0.80;;
53521;SDS011;39398;48.382;9.802;2023-08-01T15:33:25;1.00;;;0.90;;
53521;SDS011;39398;48.382;9.802;2023-08-01T15:38:26;0.73;;;0.73;;
53521;SDS011;39398;48.382;9.802;2023-08-01T15:43:29;0.80;;;0.80;;
53521;SDS011;39398;48.382;9.802;2023-08-01T15:48:31;0.73;;;0.73;;
53521;SDS011;39398;48.382;9.802;2023-08-01T15:53:32;0.88;;;0.82;;
53521;SDS011;39398;48.382;9.802;2023-08-01T15:58:35;1.45;;;0.85;;
53521;SDS011;39398;48.382;9.802;2023-08-01T16:03:37;1.70;;;0.85;;
53521;SDS011;39398;48.382;9.802;2023-08-01T16:08:39;1.05;;;0.93;;
53521;SDS011;39398;48.382;9.802;2023-08-01T16:13:42;1.25;;;0.80;;
53521;SDS011;39398;48.382;9.802;2023-08-01T16:18:43;1.10;;;0.85;;
53521;SDS011;39398;48.382;9.802;2023-08-01T16:23:45;1.77;;;0.93;;
53521;SDS011;39398;48.382;9.802;2023-08-01T16:28:48;2.05;;;1.05;;
53521;SDS011;39398;48.382;9.802;2023-08-01T16:33:49;0.80;;;0.80;;
53521;SDS011;39398;48.382;9.802;2023-08-01T16:38:50;1.20;;;0.77;;
53521;SDS011;39398;48.382;9.802;2023-08-01T16:43:53;2.90;;;1.10;;
53521;SDS011;39398;48.382;9.802;2023-08-01T16:48:54;1.45;;;1.02;;
53521;SDS011;39398;48.382;9.802;2023-08-01T16:54:00;4.00;;;2.85;;
53521;SDS011;39398;48.382;9.802;2023-08-01T16:59:02;0.77;;;0.77;;
53521;SDS011;39398;48.382;9.802;2023-08-01T17:04:04;1.02;;;0.93;;
53521;SDS011;39398;48.382;9.802;2023-08-01T17:09:06;0.70;;;0.70;;
53521;SDS011;39398;48.382;9.802;2023-08-01T17:14:12;1.45;;;0.80;;
53521;SDS011;39398;48.382;9.802;2023-08-01T17:19:13;6.28;;;0.90;;
53521;SDS011;39398;48.382;9.802;2023-08-01T17:24:15;2.75;;;0.77;;
53521;SDS011;39398;48.382;9.802;2023-08-01T17:29:17;1.20;;;1.02;;
53521;SDS011;39398;48.382;9.802;2023-08-01T17:34:19;1.35;;;0.98;;
53521;SDS011;39398;48.382;9.802;2023-08-01T17:39:20;1.15;;;0.90;;
53521;SDS011;39398;48.382;9.802;2023-08-01T17:44:23;1.08;;;1.00;;
53521;SDS011;39398;48.382;9.802;2023-08-01T17:49:25;2.38;;;1.25;;
53521;SDS011;39398;48.382;9.802;2023-08-01T17:54:26;1.15;;;0.90;;
53521;SDS011;39398;48.382;9.802;2023-08-01T17:59:29;0.88;;;0.85;;
53521;SDS011;39398;48.382;9.802;2023-08-01T18:04:30;1.52;;;0.90;;
53521;SDS011;39398;48.382;9.802;2023-08-01T18:09:32;1.05;;;1.02;;
53521;SDS011;39398;48.382;9.802;2023-08-01T18:14:34;2.63;;;0.80;;
53521;SDS011;39398;48.382;9.802;2023-08-01T18:19:36;0.98;;;0.88;;
53521;SDS011;39398;48.382;9.802;2023-08-01T18:24:37;1.15;;;1.10;;
53521;SDS011;39398;48.382;9.802;2023-08-01T18:29:40;2.50;;;1.13;;
53521;SDS011;39398;48.382;9.802;2023-08-01T18:34:41;1.30;;;1.20;;
53521;SDS011;39398;48.382;9.802;2023-08-01T18:39:43;1.75;;;1.30;;
53521;SDS011;39398;48.382;9.802;2023-08-01T18:44:46;1.33;;;1.10;;
53521;SDS011;39398;48.382;9.802;2023-08-01T18:49:47;3.13;;;1.33;;
53521;SDS011;39398;48.382;9.802;2023-08-01T18:54:49;1.58;;;1.48;;
53521;SDS011;39398;48.382;9.802;2023-08-01T18:59:52;3.90;;;1.70;;
53521;SDS011;39398;48.382;9.802;2023-08-01T19:04:53;2.17;;;1.30;;
53521;SDS011;39398;48.382;9.802;2023-08-01T19:09:54;1.45;;;1.30;;
53521;SDS011;39398;48.382;9.802;2023-08-01T19:14:57;3.25;;;1.60;;
53521;SDS011;39398;48.382;9.802;2023-08-01T19:19:59;2.20;;;1.38;;
53521;SDS011;39398;48.382;9.802;2023-08-01T19:25:00;2.55;;;1.10;;
53521;SDS011;39398;48.382;9.802;2023-08-01T19:30:03;1.35;;;1.10;;
53521;SDS011;39398;48.382;9.802;2023-08-01T19:35:05;1.45;;;1.30;;
53521;SDS011;39398;48.382;9.802;2023-08-01T19:40:07;6.32;;;5.03;;
53521;SDS011;39398;48.382;9.802;2023-08-01T19:45:10;2.13;;;1.20;;
53521;SDS011;39398;48.382;9.802;2023-08-01T19:50:12;1.67;;;1.10;;
53521;SDS011;39398;48.382;9.802;2023-08-01T19:55:13;1.88;;;1.48;;
53521;SDS011;39398;48.382;9.802;2023-08-01T20:00:16;1.55;;;1.25;;
53521;SDS011;39398;48.382;9.802;2023-08-01T20:05:18;3.42;;;1.35;;
53521;SDS011;39398;48.382;9.802;2023-08-01T20:10:19;2.10;;;1.40;;
53521;SDS011;39398;48.382;9.802;2023-08-01T20:15:22;1.52;;;1.30;;
53521;SDS011;39398;48.382;9.802;2023-08-01T20:20:25;2.92;;;1.25;;
53521;SDS011;39398;48.382;9.802;2023-08-01T20:25:26;1.80;;;1.38;;
53521;SDS011;39398;48.382;9.802;2023-08-01T20:30:29;1.50;;;1.30;;
53521;SDS011;39398;48.382;9.802;2023-08-01T20:35:30;2.05;;;1.30;;
53521;SDS011;39398;48.382;9.802;2023-08-01T20:40:32;1.67;;;1.30;;
53521;SDS011;39398;48.382;9.802;2023-08-01T20:45:35;1.75;;;1.17;;
53521;SDS011;39398;48.382;9.802;2023-08-01T20:50:36;1.55;;;1.45;;
53521;SDS011;39398;48.382;9.802;2023-08-01T20:55:37;3.92;;;2.65;;
53521;SDS011;39398;48.382;9.802;2023-08-01T21:00:40;2.50;;;1.55;;
53521;SDS011;39398;48.382;9.802;2023-08-01T21:05:41;3.45;;;1.58;;
53521;SDS011;39398;48.382;9.802;2023-08-01T21:10:43;1.92;;;1.50;;
53521;SDS011;39398;48.382;9.802;2023-08-01T21:15:46;2.10;;;1.55;;
53521;SDS011;39398;48.382;9.802;2023-08-01T21:20:47;1.83;;;1.63;;
53521;SDS011;39398;48.382;9.802;2023-08-01T21:25:48;2.83;;;1.80;;
53521;SDS011;39398;48.382;9.802;2023-08-01T21:30:51;3.53;;;1.83;;
53521;SDS011;39398;48.382;9.802;2023-08-01T21:35:53;3.45;;;2.85;;
53521;SDS011;39398;48.382;9.802;2023-08-01T21:40:54;2.08;;;1.33;;
53521;SDS011;39398;48.382;9.802;2023-08-01T21:45:57;1.73;;;1.52;;
53521;SDS011;39398;48.382;9.802;2023-08-01T21:50:59;2.15;;;1.50;;
53521;SDS011;39398;48.382;9.802;2023-08-01T21:56:00;2.17;;;1.40;;
53521;SDS011;39398;48.382;9.802;2023-08-01T22:01:03;4.40;;;1.70;;
53521;SDS011;39398;48.382;9.802;2023-08-01T22:06:04;3.60;;;1.70;;
53521;SDS011;39398;48.382;9.802;2023-08-01T22:11:06;3.00;;;1.70;;
53521;SDS011;39398;48.382;9.802;2023-08-01T22:16:08;4.35;;;1.58;;
53521;SDS011;39398;48.382;9.802;2023-08-01T22:21:10;2.75;;;1.50;;
53521;SDS011;39398;48.382;9.802;2023-08-01T22:26:11;5.15;;;1.58;;
53521;SDS011;39398;48.382;9.802;2023-08-01T22:31:14;4.15;;;1.42;;
53521;SDS011;39398;48.382;9.802;2023-08-01T22:36:16;1.55;;;1.45;;
53521;SDS011;39398;48.382;9.802;2023-08-01T22:41:17;3.55;;;1.80;;
53521;SDS011;39398;48.382;9.802;2023-08-01T22:46:20;3.38;;;1.80;;
53521;SDS011;39398;48.382;9.802;2023-08-01T22:51:21;2.88;;;1.52;;
53521;SDS011;39398;48.382;9.802;2023-08-01T22:56:23;3.35;;;1.40;;
53521;SDS011;39398;48.382;9.802;2023-08-01T23:01:26;4.40;;;1.80;;
53521;SDS011;39398;48.382;9.802;2023-08-01T23:06:27;3.15;;;1.83;;
53521;SDS011;39398;48.382;9.802;2023-08-01T23:11:29;2.92;;;1.80;;
53521;SDS011;39398;48.382;9.802;2023-08-01T23:16:32;3.25;;;1.60;;
53521;SDS011;39398;48.382;9.802;2023-08-01T23:21:33;2.10;;;1.63;;
53521;SDS011;39398;48.382;9.802;2023-08-01T23:26:34;2.42;;;1.70;;
53521;SDS011;39398;48.382;9.802;2023-08-01T23:31:37;3.63;;;1.80;;
53521;SDS011;39398;48.382;9.802;2023-08-01T23:36:39;3.25;;;2.15;;
53521;SDS011;39398;48.382;9.802;2023-08-01T23:41:40;3.78;;;2.08;;
53521;SDS011;39398;48.382;9.802;2023-08-01T23:46:45;2.67;;;1.60;;
53521;SDS011;39398;48.382;9.802;2023-08-01T23:51:46;5.18;;;2.10;;
53521;SDS011;39398;48.382;9.802;2023-08-01T23:56:47;4.75;;;1.80;;
